Terminal Aerodrome Forecast
Issued by NWS

Home | Current Version | Previous Version | Text Only | Print | Product List | Glossary On
Versions: 1 2 3 4 5 6 7 8 9 10 11 12 13 14 15 16 17 18 19 20 21 22 23 24 25
000
FTUS43 KICT 250646 AAA
TAFCNU
TAF AMD
KCNU 250646Z 2507/2606 18007KT P6SM BKN003
      TEMPO 2507/2509 SCT003
     FM250900 VRB05KT 3SM BR SCT004 BKN015
      TEMPO 2511/2513 1 1/2SM BR BKN004 OVC015
     FM251500 17010KT P6SM BKN010
     FM251900 18015G23KT P6SM SCT030=

USA.gov is the U.S. government's official web portal to all federal, state and local government web resources and services.